Flight Track Log - Related Links

Times and Time Zones

All times are in EDT time to prevent confusion due to time zone crossing. See the VH-SRO flight status page for this flight to view local times or setup timezone preferences in your user account.

Time Position Orientation Groundspeed Altitude Reporting Facility
EDT Latitude Longitude Course Direction KTS MPH feet Rate Location/Type
Mon 07:33:27 PM -27.5577 153.0205 313° West 121 139 1,100  Level Aus ATC (RADAR)
Mon 07:33:52 PM -27.5474 153.0082 313° West 129 148 1,200 -100 Climbing Aus ATC (RADAR)
Mon 07:34:27 PM -27.5311 152.9899 315° West 137 158 1,000 -150 Descending Aus ATC (RADAR)
Mon 07:35:12 PM -27.5076 152.9706 324° Northwest 138 159 1,000 150 Level Aus ATC (RADAR)
Mon 07:35:47 PM -27.4853 152.9671 352° North 136 157 1,200 357 Climbing Aus ATC (RADAR)
Mon 07:36:36 PM -27.4531 152.9579 346° North 149 171 1,500 640 Climbing Aus ATC (RADAR)
Mon 07:37:02 PM -27.4437 152.9424 305° West 140 161 2,000 1,140 Climbing Aus ATC (RADAR)
Mon 07:38:16 PM -27.4167 152.9053 309° West 118 136 3,400 1,096 Climbing Aus ATC (RADAR)
Mon 07:38:46 PM -27.4043 152.8929 318° Northwest 116 133 3,900 873 Climbing Aus ATC (RADAR)
Mon 07:39:11 PM -27.3929 152.8845 327° Northwest 115 132 4,200 800 Climbing Aus ATC (RADAR)
Mon 07:39:46 PM -27.3760 152.8748 333° Northwest 115 132 4,700 825 Climbing Aus ATC (RADAR)
Mon 07:40:31 PM -27.3534 152.8604 330° Northwest 122 140 5,300 776 Climbing Aus ATC (RADAR)
Mon 07:41:11 PM -27.3330 152.8486 333° Northwest 120 138 5,800 565 Climbing Aus ATC (RADAR)
Mon 07:41:56 PM -27.3092 152.8344 332° Northwest 129 148 6,100 48 Climbing Aus ATC (RADAR)
Mon 07:43:16 PM -27.2609 152.7993 327° Northwest 154 177 5,900 -114 Descending Aus ATC (RADAR)
Mon 07:43:41 PM -27.2453 152.7891 330° Northwest 153 176 5,900  Level Aus ATC (RADAR)
Mon 07:44:06 PM -27.2298 152.7786 329° Northwest 154 177 5,900  Level Aus ATC (RADAR)
Mon 07:44:41 PM -27.2069 152.7654 333° Northwest 156 180 5,900 71 Level Aus ATC (RADAR)
Mon 07:45:31 PM -27.1753 152.7449 330° Northwest 156 180 6,000 141 Climbing Aus ATC (RADAR)
Mon 07:46:06 PM -27.1615 152.7194 301° West 160 184 6,100  Climbing Aus ATC (RADAR)
Mon 07:46:56 PM -27.1420 152.6835 301° West 161 185 6,000 -160 Descending Aus ATC (RADAR)
Mon 07:47:21 PM -27.1313 152.6655 304° West 162 186 5,900 -61 Descending Aus ATC (RADAR)
Mon 07:48:35 PM -27.0997 152.6119 303° West 157 181 5,900  Level Aus ATC (RADAR)
Mon 07:49:06 PM -27.0874 152.5907 303° West 157 181 5,900  Level Aus ATC (RADAR)
Mon 07:49:40 PM -27.0723 152.5662 305° West 160 184 5,900  Level Aus ATC (RADAR)
Mon 07:50:25 PM -27.0506 152.5358 309° West 166 191 5,900  Level Aus ATC (RADAR)
Mon 07:51:01 PM -27.0340 152.5117 308° West 166 191 5,900  Level Aus ATC (RADAR)
Mon 07:51:51 PM -27.0096 152.4768 308° West 168 193 5,900  Level Aus ATC (RADAR)
Mon 07:52:16 PM -26.9972 152.4593 308° West 170 196 5,900  Level Aus ATC (RADAR)
Mon 07:53:40 PM -26.9555 152.3995 308° West 169 194 5,900  Level Aus ATC (RADAR)
Mon 07:54:05 PM -26.9423 152.3820 310° West 173 199 5,900  Level Aus ATC (RADAR)
Mon 07:54:40 PM -26.9247 152.3571 308° West 173 199 5,900  Level Aus ATC (RADAR)
Mon 07:55:25 PM -26.9030 152.3254 307° West 171 197 5,900  Level Aus ATC (RADAR)
Mon 07:56:05 PM -26.8837 152.2976 308° West 166 191 5,900  Level Aus ATC (RADAR)
Mon 07:56:55 PM -26.8591 152.2627 308° West 167 192 5,900  Level Aus ATC (RADAR)
Mon 07:57:15 PM -26.8496 152.2483 307° West 169 194 5,900  Level Aus ATC (RADAR)
Mon 07:58:40 PM -26.8118 152.1872 305° West 167 192 5,900  Level Aus ATC (RADAR)
Mon 07:59:05 PM -26.8007 152.1694 305° West 165 190 5,900  Level Aus ATC (RADAR)
Mon 07:59:30 PM -26.7896 152.1514 305° West 165 190 5,900  Level Aus ATC (RADAR)
Mon 08:00:06 PM -26.7679 152.1335 324° Northwest 164 189 5,900  Level Aus ATC (RADAR)
Mon 08:00:54 PM -26.7355 152.1114 329° Northwest 160 184 5,900  Level Aus ATC (RADAR)
Mon 08:01:29 PM -26.7106 152.0982 335° Northwest 168 193 5,900  Level Aus ATC (RADAR)
Mon 08:02:14 PM -26.6808 152.0759 326° Northwest 174 200 5,900  Level Aus ATC (RADAR)
Mon 08:02:44 PM -26.6619 152.0590 322° Northwest 173 199 5,900  Level Aus ATC (RADAR)
Mon 08:03:54 PM -26.6171 152.0250 326° Northwest 166 191 5,900  Level Aus ATC (RADAR)
Mon 08:04:19 PM -26.6015 152.0118 323° Northwest 166 191 5,900  Level Aus ATC (RADAR)
Mon 08:04:54 PM -26.5809 151.9945 323° Northwest 160 184 5,900  Level Aus ATC (RADAR)
Mon 08:05:34 PM -26.5559 151.9725 322° Northwest 167 192 5,900  Level Aus ATC (RADAR)
Mon 08:06:09 PM -26.5348 151.9532 321° Northwest 166 191 5,900  Level Aus ATC (RADAR)
Mon 08:06:59 PM -26.5027 151.9285 325° Northwest 171 197 5,900  Level Aus ATC (RADAR)
Mon 08:07:24 PM -26.4855 151.9195 335° Northwest 168 193 5,900  Level Aus ATC (RADAR)
Mon 08:08:39 PM -26.4384 151.8838 326° Northwest 162 186 5,900  Level Aus ATC (RADAR)
Mon 08:09:04 PM -26.4232 151.8698 321° Northwest 165 190 5,900  Level Aus ATC (RADAR)
Mon 08:09:29 PM -26.4096 151.8543 314° West 163 188 5,900 -100 Level Aus ATC (RADAR)
Mon 08:10:04 PM -26.3891 151.8323 316° Northwest 171 197 5,800 -500 Descending Aus ATC (RADAR)
Mon 08:10:53 PM -26.3551 151.8082 328° Northwest 176 203 5,200 -643 Descending Aus ATC (RADAR)
Mon 08:11:28 PM -26.3322 151.7925 328° Northwest 168 193 4,900 -525 Descending Aus ATC (RADAR)
Mon 08:12:13 PM -26.3059 151.7720 325° Northwest 152 175 4,500 -55 Descending Aus ATC (RADAR)
Mon 08:16:58 PM -26.3583 151.7794 171° South 6,000 -40 Climbing Aus ATC (Calculated)
Mon 08:18:00 PM -26.3823 151.8035 138° Southeast  Level Estimated
Mon 08:18:54 PM -26.3919 151.7994 175° South 6,000  Level Aus ATC (Calculated)
Mon 08:19:00 PM -26.4056 151.8268 138° Southeast  Level Estimated
Mon 08:20:00 PM -26.4174 151.8252 138° Southeast  Level Estimated
Mon 08:20:29 PM -26.4853 151.8219 179° South 6,000  Level Aus ATC (Calculated)
Mon 08:22:00 PM -26.5194 151.8587 136° Southeast  Level Estimated
Mon 08:23:00 PM -26.5418 151.8829 136° Southeast  Level Estimated
Mon 08:24:00 PM -26.5643 151.9072 136° Southeast  Level Estimated
Mon 08:25:00 PM -26.5868 151.9315 136° Southeast  Level Estimated
Mon 08:26:00 PM -26.6092 151.9558 136° Southeast  Level Estimated
Mon 08:27:00 PM -26.6317 151.9801 136° Southeast  Level Estimated
Mon 08:27:56 PM -26.7031 151.9897 298° West 200  Level Aus ATC (Calculated)
Mon 08:28:00 PM -26.6542 152.0044 136° Southeast  Level Estimated
Mon 08:29:00 PM -26.7262 152.0166 134° Southeast  Level Estimated
Mon 08:30:00 PM -26.7479 152.0418 134° Southeast  Level Estimated
Mon 08:31:00 PM -26.7696 152.0670 134° Southeast  Level Estimated
Mon 08:32:00 PM -26.7913 152.0922 134° Southeast  Level Estimated
Mon 08:33:00 PM -26.8130 152.1174 134° Southeast  Level Estimated
Mon 08:34:00 PM -26.8346 152.1426 134° Southeast  Level Estimated
Mon 08:34:56 PM -26.6255 151.8242 134° Southeast 112 129 3,600  Level Aus ATC (RADAR)
Mon 08:35:00 PM -26.8563 152.1679 134° Southeast  Level Estimated
Mon 08:35:31 PM -26.6072 151.8186 345° North 114 131 4,100  Level Aus ATC (RADAR)
Mon 08:36:21 PM -26.5818 151.8338 28° Northeast 129 148 4,000 -71 Descending Aus ATC (RADAR)
Mon 08:36:56 PM -26.5929 151.8246 216° Southwest 137 158 4,000  Level Aus ATC (RADAR)
Mon 08:38:06 PM -26.5788 151.8257 North 138 159 4,000 55 Level Aus ATC (RADAR)
Mon 08:38:46 PM -26.5639 151.8403 41° Northeast 101 116 4,100 -60 Climbing Aus ATC (RADAR)
Mon 08:39:46 PM -26.5773 151.8622 124° Southeast 75 86 3,900 71 Descending Aus ATC (RADAR)
Mon 08:40:11 PM -26.5969 151.8754 149° Southeast 116 133 4,200 277 Climbing Aus ATC (RADAR)
Mon 08:40:51 PM -26.6122 151.8878 144° Southeast 149 171 4,200  Level Aus ATC (RADAR)
Mon 08:41:25 PM -26.6242 151.8646 240° Southwest 140 161 4,200 -86 Level Aus ATC (RADAR)
Mon 08:42:01 PM -26.6044 151.8442 317° Northwest 170 196 4,100  Descending Aus ATC (RADAR)
Mon 08:42:46 PM -26.5784 151.8374 347° North 135 155 4,200 261 Climbing Aus ATC (RADAR)
Mon 08:43:10 PM -26.5636 151.8368 358° North 130 150 4,400 305 Climbing Aus ATC (RADAR)
Mon 08:43:45 PM -26.5719 151.8616 111° Southeast 125 144 4,500 343 Climbing Aus ATC (RADAR)
Mon 08:44:55 PM -26.6131 151.8595 183° South 122 140 5,000 480 Climbing Aus ATC (RADAR)
Mon 08:45:25 PM -26.6210 151.8732 123° Southeast 96 110 5,300 831 Climbing Aus ATC (RADAR)
Mon 08:46:00 PM -26.6314 151.8896 125° Southeast 108 124 5,900 847 Climbing Aus ATC (RADAR)
Mon 08:46:50 PM -26.6413 151.9105 118° Southeast 93 107 6,500 847 Climbing Aus ATC (RADAR)
Mon 08:47:25 PM -26.6498 151.9262 121° Southeast 100 115 7,100 525 Climbing Aus ATC (RADAR)
Mon 08:48:10 PM -26.6653 151.9444 134° Southeast 111 128 7,200  Climbing Aus ATC (RADAR)
Mon 08:48:45 PM -26.6803 151.9611 135° Southeast 127 146 7,100 -164 Descending Aus ATC (RADAR)
Mon 08:50:00 PM -26.7140 152.0002 134° Southeast 138 159 6,900 -114 Descending Aus ATC (RADAR)
Mon 08:50:30 PM -26.7292 152.0140 141° Southeast 139 160 6,900  Level Aus ATC (RADAR)
Mon 08:51:05 PM -26.7456 152.0314 137° Southeast 138 159 6,900  Level Aus ATC (RADAR)
Mon 08:51:40 PM -26.7614 152.0499 134° Southeast 139 160 6,900  Level Aus ATC (RADAR)
Mon 08:52:20 PM -26.7794 152.0709 134° Southeast 140 161 6,900  Level Aus ATC (RADAR)
Mon 08:53:04 PM -26.7998 152.0952 133° Southeast 141 162 6,900  Level Aus ATC (RADAR)
Mon 08:53:29 PM -26.8088 152.1106 123° Southeast 142 163 6,900  Level Aus ATC (RADAR)
Mon 08:54:34 PM -26.8307 152.1515 121° Southeast 139 160 6,900  Level Aus ATC (RADAR)
Mon 08:54:59 PM -26.8394 152.1670 122° Southeast 140 161 6,900  Level Aus ATC (RADAR)
Mon 08:55:29 PM -26.8498 152.1858 122° Southeast 140 161 6,900  Level Aus ATC (RADAR)
Mon 08:56:04 PM -26.8623 152.2066 124° Southeast 136 157 6,900  Level Aus ATC (RADAR)
Mon 08:56:39 PM -26.8745 152.2282 122° Southeast 138 159 6,900  Level Aus ATC (RADAR)
Mon 08:57:15 PM -26.8870 152.2499 123° Southeast 141 162 6,900  Level Aus ATC (RADAR)
Mon 08:58:04 PM -26.9040 152.2798 123° Southeast 136 157 6,900  Level Aus ATC (RADAR)
Mon 08:58:29 PM -26.9131 152.2949 124° Southeast 138 159 6,900  Level Aus ATC (RADAR)
Mon 08:59:04 PM -26.9249 152.3159 122° Southeast 136 157 6,900  Level Aus ATC (RADAR)
Mon 09:00:09 PM -26.9473 152.3551 123° Southeast 136 157 6,900  Level Aus ATC (RADAR)
Mon 09:00:34 PM -26.9562 152.3698 124° Southeast 134 154 6,900  Level Aus ATC (RADAR)
Mon 09:01:09 PM -26.9682 152.3908 123° Southeast 137 158 6,900  Level Aus ATC (RADAR)
Mon 09:01:53 PM -26.9838 152.4182 122° Southeast 138 159 6,900  Level Aus ATC (RADAR)
Mon 09:02:28 PM -26.9967 152.4397 124° Southeast 139 160 6,900  Level Aus ATC (RADAR)
Mon 09:03:18 PM -27.0150 152.4695 125° Southeast 138 159 6,900  Level Aus ATC (RADAR)
Mon 09:03:43 PM -27.0292 152.4791 149° Southeast 137 158 6,900  Level Aus ATC (RADAR)
Mon 09:04:53 PM -27.0672 152.5087 145° Southeast 143 165 6,900  Level Aus ATC (RADAR)
Mon 09:05:18 PM -27.0803 152.5195 144° Southeast 139 160 6,900  Level Aus ATC (RADAR)
Mon 09:05:43 PM -27.0933 152.5314 141° Southeast 143 165 6,900  Level Aus ATC (RADAR)
Mon 09:06:18 PM -27.1096 152.5486 137° Southeast 138 159 6,900  Level Aus ATC (RADAR)
Mon 09:07:08 PM -27.1343 152.5721 140° Southeast 139 160 6,900  Level Aus ATC (RADAR)
Mon 09:07:43 PM -27.1516 152.5893 138° Southeast 141 162 6,900 -141 Level Aus ATC (RADAR)
Mon 09:08:33 PM -27.1767 152.6146 138° Southeast 145 167 6,700 -400 Descending Aus ATC (RADAR)
Mon 09:08:58 PM -27.1898 152.6280 138° Southeast 150 173 6,400 -442 Descending Aus ATC (RADAR)
Mon 09:10:08 PM -27.2250 152.6612 140° Southeast 141 162 6,000 -316 Descending Aus ATC (RADAR)
Mon 09:10:33 PM -27.2351 152.6756 128° Southeast 141 162 5,900 -500 Descending Aus ATC (RADAR)
Mon 09:11:08 PM -27.2504 152.6947 132° Southeast 143 165 5,500 -532 Descending Aus ATC (RADAR)
Mon 09:11:52 PM -27.2751 152.7158 143° Southeast 146 168 5,200 -429 Descending Aus ATC (RADAR)
Mon 09:12:32 PM -27.2936 152.7379 133° Southeast 144 166 4,900 -424 Descending Aus ATC (RADAR)
Mon 09:13:17 PM -27.3169 152.7575 143° Southeast 137 158 4,600 -429 Descending Aus ATC (RADAR)
Mon 09:13:42 PM -27.3286 152.7691 139° Southeast 135 155 4,400 -400 Descending Aus ATC (RADAR)
Mon 09:14:17 PM -27.3462 152.7849 141° Southeast 136 157 4,200 -218 Descending Aus ATC (RADAR)
Mon 09:15:32 PM -27.3834 152.8207 139° Southeast 137 158 4,000 -120 Descending Aus ATC (RADAR)
Mon 09:15:57 PM -27.3938 152.8335 132° Southeast 132 152 4,000  Level Aus ATC (RADAR)
Mon 09:16:37 PM -27.4121 152.8526 137° Southeast 133 153 4,000 -212 Level Aus ATC (RADAR)
Mon 09:17:22 PM -27.4357 152.8721 144° Southeast 141 162 3,700 -450 Descending Aus ATC (RADAR)
Mon 09:17:57 PM -27.4522 152.8905 135° Southeast 140 161 3,400 -800 Descending Aus ATC (RADAR)
Mon 09:18:52 PM -27.4763 152.9124 141° Southeast 118 136 2,500 -943 Descending Aus ATC (RADAR)
Mon 09:19:07 PM -27.4833 152.9175 147° Southeast 117 135 2,300 -880 Descending Aus ATC (RADAR)
Mon 09:20:07 PM -27.5116 152.9351 151° Southeast 114 131 1,400 -607 Descending Aus ATC (RADAR)
Mon 09:20:36 PM -27.5246 152.9415 157° South 101 116 1,400 -109 Level Aus ATC (RADAR)
Mon 09:21:02 PM -27.5357 152.9414 180° South 97 112 1,300 -300 Descending Aus ATC (RADAR)
Mon 09:21:36 PM -27.5506 152.9446 169° South 91 105 1,100 -405 Descending Aus ATC (RADAR)
Mon 09:22:16 PM -27.5595 152.9611 121° Southeast 92 106 800 -480 Descending Aus ATC (RADAR)
Mon 09:22:51 PM -27.5634 152.9748 107° East 77 89 500 -480 Descending Aus ATC (RADAR)
Mon 09:23:31 PM -27.5683 152.9901 110° East 75 86 200 -450 Descending Aus ATC (RADAR)

Login

Don't have an account? Register now (free) for customized features, flight alerts, and more!